Time,TemperatureF,DewpointF,PressureIn,WindDirection,WindDirectionDegrees,WindSpeedMPH,WindSpeedGustMPH,Humidity,HourlyPrecipIn,Conditions,Clouds,dailyrainin,SoftwareType,DateUTC
2013-02-19 00:04:00,30.6,26.3,30.08,East,90,1.6,1.6,84,0.00,SCT,SKC,0.00,WeatherDisplay:10.37,2013-02-18 23:04:00,
2013-02-19 00:09:00,30.4,26.1,30.07,East,90,1.2,0.0,84,0.00,SCT,SKC,0.00,WeatherDisplay:10.37,2013-02-18 23:09:00,
2013-02-19 00:14:00,30.2,25.9,30.07,SW,225,2.3,2.3,84,0.00,SCT,SKC,0.00,WeatherDisplay:10.37,2013-02-18 23:14:00,
2013-02-19 00:19:00,30.0,26.1,30.08,NW,315,1.2,0.0,85,0.00,SCT,SKC,0.00,WeatherDisplay:10.37,2013-02-18 23:19:00,
2013-02-19 00:24:00,29.8,25.9,30.07,NE,45,1.6,1.6,85,0.00,SCT,SKC,0.00,WeatherDisplay:10.37,2013-02-18 23:24:00,
2013-02-19 00:29:00,29.5,25.5,30.07,NE,45,1.2,0.0,85,0.00,SCT,SKC,0.00,WeatherDisplay:10.37,2013-02-18 23:29:00,
2013-02-19 00:34:00,29.3,25.4,30.07,SW,225,1.2,0.0,85,0.00,SCT,SKC,0.00,WeatherDisplay:10.37,2013-02-18 23:34:00,
2013-02-19 00:39:00,29.1,25.2,30.07,SW,225,1.2,0.0,85,0.00,SCT,SKC,0.00,WeatherDisplay:10.37,2013-02-18 23:39:00,
2013-02-19 00:44:00,28.9,25.0,30.07,South,180,2.3,2.3,85,0.00,SCT,SKC,0.00,WeatherDisplay:10.37,2013-02-18 23:44:00,
2013-02-19 00:50:00,28.8,24.8,30.06,SW,226,1.0,3.0,85,0.00,SCT,SKC,0.00,WeatherDisplay:10.37,2013-02-18 23:50:00,
2013-02-19 00:55:00,28.6,24.6,30.06,SSE,158,4.6,4.6,85,0.00,SCT,SKC,0.00,WeatherDisplay:10.37,2013-02-18 23:55:00,
2013-02-19 01:01:00,28.8,24.8,30.07,SW,225,5.8,5.8,85,0.00,SCT,SKC,0.00,WeatherDisplay:10.37,2013-02-19 00:01:00,
2013-02-19 01:06:00,28.9,25.0,30.06,WSW,248,5.8,5.8,85,0.00,SCT,SKC,0.00,WeatherDisplay:10.37,2013-02-19 00:06:00,
2013-02-19 01:11:00,29.1,25.2,30.06,South,180,5.8,5.8,85,0.00,SCT,SKC,0.00,WeatherDisplay:10.37,2013-02-19 00:11:00,
2013-02-19 01:16:00,29.1,25.2,30.06,SW,225,4.6,4.6,85,0.00,SCT,SKC,0.00,WeatherDisplay:10.37,2013-02-19 00:16:00,
2013-02-19 01:21:00,29.3,25.4,30.06,WSW,248,4.6,4.6,85,0.00,SCT,SKC,0.00,WeatherDisplay:10.37,2013-02-19 00:21:00,
2013-02-19 01:26:00,29.3,25.4,30.06,SW,225,5.8,5.8,85,0.00,SCT,SKC,0.00,WeatherDisplay:10.37,2013-02-19 00:26:00,
2013-02-19 01:31:00,29.5,25.5,30.06,SW,225,4.6,4.6,85,0.00,SCT,SKC,0.00,WeatherDisplay:10.37,2013-02-19 00:31:00,
2013-02-19 01:36:00,29.7,25.7,30.06,South,180,5.8,5.8,85,0.00,SCT,SKC,0.00,WeatherDisplay:10.37,2013-02-19 00:36:00,
2013-02-19 01:41:00,29.7,25.7,30.06,SW,225,5.8,5.8,85,0.00,SCT,SKC,0.00,WeatherDisplay:10.37,2013-02-19 00:41:00,
2013-02-19 01:46:00,29.7,25.7,30.06,SSW,202,5.8,5.8,85,0.00,SCT,SKC,0.00,WeatherDisplay:10.37,2013-02-19 00:46:00,
2013-02-19 01:51:00,29.8,25.6,30.05,West,270,3.8,3.8,84,0.00,SCT,SKC,0.00,WeatherDisplay:10.37,2013-02-19 00:51:00,
2013-02-19 01:56:00,29.8,25.6,30.05,SW,225,4.6,4.6,84,0.00,SCT,SKC,0.00,WeatherDisplay:10.37,2013-02-19 00:56:00,
2013-02-19 02:01:00,29.7,25.4,30.05,SW,225,3.5,3.5,84,0.00,SCT,SKC,0.00,WeatherDisplay:10.37,2013-02-19 01:01:00,
2013-02-19 02:06:00,29.7,25.4,30.05,SW,225,3.5,3.5,84,0.00,SCT,SKC,0.00,WeatherDisplay:10.37,2013-02-19 01:06:00,
2013-02-19 02:13:00,29.5,25.2,30.05,SW,225,3.1,3.1,84,0.00,SCT,SKC,0.00,WeatherDisplay:10.37,2013-02-19 01:13:00,
2013-02-19 02:18:00,29.5,25.2,30.04,NW,315,2.3,2.3,84,0.00,BKN,SKC,0.00,WeatherDisplay:10.37,2013-02-19 01:18:00,
2013-02-19 02:23:00,29.3,24.8,30.04,North,0,1.6,1.6,83,0.00,BKN,SKC,0.00,WeatherDisplay:10.37,2013-02-19 01:23:00,
2013-02-19 02:29:00,29.1,24.6,30.04,North,0,2.3,0.0,83,0.00,BKN,SKC,0.00,WeatherDisplay:10.37,2013-02-19 01:29:00,
2013-02-19 02:34:00,28.9,24.4,30.05,West,270,2.3,2.3,83,0.00,BKN,SKC,0.00,WeatherDisplay:10.37,2013-02-19 01:34:00,
2013-02-19 02:40:00,28.9,24.4,30.04,WSW,244,1.0,2.0,83,0.00,BKN,SKC,0.00,WeatherDisplay:10.37,2013-02-19 01:40:00,
2013-02-19 02:45:00,28.9,24.4,30.04,SW,225,1.2,0.0,83,0.00,BKN,SKC,0.00,WeatherDisplay:10.37,2013-02-19 01:45:00,
2013-02-19 02:50:00,28.9,24.4,30.03,NE,45,2.3,2.3,83,0.00,BKN,SKC,0.00,WeatherDisplay:10.37,2013-02-19 01:50:00,
2013-02-19 02:55:00,28.8,24.2,30.03,NE,45,0.0,0.0,83,0.00,BKN,SKC,0.00,WeatherDisplay:10.37,2013-02-19 01:55:00,
2013-02-19 03:00:00,28.8,24.2,30.03,NW,315,1.2,0.0,83,0.00,BKN,SKC,0.00,WeatherDisplay:10.37,2013-02-19 02:00:00,
2013-02-19 03:05:00,28.8,24.2,30.03,SE,135,1.6,1.6,83,0.00,,SKC,0.00,WeatherDisplay:10.37,2013-02-19 02:05:00,
2013-02-19 03:10:00,28.9,24.4,30.03,SE,135,2.3,0.0,83,0.00,,SKC,0.00,WeatherDisplay:10.37,2013-02-19 02:10:00,
2013-02-19 03:16:00,28.9,24.4,30.03,SE,135,1.2,0.0,83,0.00,,SKC,0.00,WeatherDisplay:10.37,2013-02-19 02:16:00,
2013-02-19 03:22:00,28.9,24.7,30.03,SE,135,0.0,0.0,84,0.00,,SKC,0.00,WeatherDisplay:10.37,2013-02-19 02:22:00,
2013-02-19 03:27:00,28.9,24.7,30.03,SE,135,0.0,0.0,84,0.00,,SKC,0.00,WeatherDisplay:10.37,2013-02-19 02:27:00,
2013-02-19 03:33:00,28.9,24.7,30.03,SE,135,1.2,1.2,84,0.00,,SKC,0.00,WeatherDisplay:10.37,2013-02-19 02:33:00,
2013-02-19 03:40:00,29.0,24.8,30.03,South,172,0.0,2.0,84,0.00,,SKC,0.00,WeatherDisplay:10.37,2013-02-19 02:40:00,
2013-02-19 03:45:00,29.1,24.9,30.03,South,175,0.0,0.0,84,0.00,,SKC,0.00,WeatherDisplay:10.37,2013-02-19 02:45:00,
2013-02-19 03:50:00,29.1,24.9,30.02,SSW,206,0.0,2.0,84,0.00,,SKC,0.00,WeatherDisplay:10.37,2013-02-19 02:50:00,
2013-02-19 03:55:00,29.1,24.9,30.02,SW,214,0.0,2.0,84,0.00,,SKC,0.00,WeatherDisplay:10.37,2013-02-19 02:55:00,
2013-02-19 04:00:00,29.1,24.9,30.02,South,187,0.0,2.0,84,0.00,,SKC,0.00,WeatherDisplay:10.37,2013-02-19 03:00:00,
2013-02-19 04:05:00,29.1,24.9,30.02,South,180,0.0,2.0,84,0.00,,SKC,0.00,WeatherDisplay:10.37,2013-02-19 03:05:00,
2013-02-19 04:10:00,29.3,25.1,30.02,SSE,166,1.0,2.0,84,0.00,,SKC,0.00,WeatherDisplay:10.37,2013-02-19 03:10:00,
2013-02-19 04:15:00,29.3,25.1,30.02,ESE,112,1.2,0.0,84,0.00,,SKC,0.00,WeatherDisplay:10.37,2013-02-19 03:15:00,
2013-02-19 04:20:00,29.3,25.1,30.02,West,270,2.2,2.2,84,0.00,,SKC,0.00,WeatherDisplay:10.37,2013-02-19 03:20:00,
2013-02-19 04:25:00,29.5,25.2,30.02,SE,135,2.3,0.0,84,0.00,,SKC,0.00,WeatherDisplay:10.37,2013-02-19 03:25:00,
2013-02-19 04:30:00,29.5,25.2,30.02,SE,135,2.3,2.3,84,0.00,,SKC,0.00,WeatherDisplay:10.37,2013-02-19 03:30:00,
2013-02-19 04:36:00,29.5,25.2,30.02,SW,225,1.2,0.0,84,0.00,,SKC,0.00,WeatherDisplay:10.37,2013-02-19 03:36:00,
2013-02-19 04:42:00,29.5,25.2,30.02,South,180,1.6,1.6,84,0.00,,SKC,0.00,WeatherDisplay:10.37,2013-02-19 03:42:00,
2013-02-19 04:47:00,29.5,25.2,30.02,South,180,1.2,0.0,84,0.00,,SKC,0.00,WeatherDisplay:10.37,2013-02-19 03:47:00,
2013-02-19 04:52:00,29.5,25.2,30.02,East,90,1.6,1.6,84,0.00,,SKC,0.00,WeatherDisplay:10.37,2013-02-19 03:52:00,
2013-02-19 04:58:00,29.5,25.2,30.01,South,180,2.3,2.3,84,0.00,,SKC,0.00,WeatherDisplay:10.37,2013-02-19 03:58:00,
2013-02-19 05:04:00,29.7,25.4,30.01,South,180,2.3,2.3,84,0.00,,SKC,0.00,WeatherDisplay:10.37,2013-02-19 04:04:00,
2013-02-19 05:09:00,29.7,25.4,30.01,South,180,3.5,3.5,84,0.00,,SKC,0.00,WeatherDisplay:10.37,2013-02-19 04:09:00,
2013-02-19 05:14:00,29.7,25.4,30.01,South,180,3.5,3.5,84,0.00,,SKC,0.00,WeatherDisplay:10.37,2013-02-19 04:14:00,
2013-02-19 05:19:00,29.7,25.4,30.01,South,180,3.5,3.5,84,0.00,,SKC,0.00,WeatherDisplay:10.37,2013-02-19 04:19:00,
2013-02-19 05:25:00,29.7,25.4,30.01,South,179,1.0,3.0,84,0.00,,SKC,0.00,WeatherDisplay:10.37,2013-02-19 04:25:00,
2013-02-19 05:30:00,29.7,25.4,30.00,South,181,2.0,4.0,84,0.00,,SKC,0.00,WeatherDisplay:10.37,2013-02-19 04:30:00,
2013-02-19 05:35:00,29.8,25.6,30.00,South,179,1.0,3.0,84,0.00,,SKC,0.00,WeatherDisplay:10.37,2013-02-19 04:35:00,
2013-02-19 05:40:00,29.8,25.6,30.00,South,180,2.3,2.3,84,0.00,,SKC,0.00,WeatherDisplay:10.37,2013-02-19 04:40:00,
2013-02-19 05:46:00,29.8,25.6,30.00,South,180,3.5,3.5,84,0.00,,SKC,0.00,WeatherDisplay:10.37,2013-02-19 04:46:00,
2013-02-19 05:52:00,30.0,25.8,30.00,South,180,3.5,3.5,84,0.00,,SKC,0.00,WeatherDisplay:10.37,2013-02-19 04:52:00,
2013-02-19 05:57:00,30.0,25.8,30.00,SSW,202,3.8,3.8,84,0.00,,SKC,0.00,WeatherDisplay:10.37,2013-02-19 04:57:00,
2013-02-19 06:00:00,30.0,25.8,30.00,South,182,2.0,4.0,84,0.00,,SKC,0.00,WeatherDisplay:10.37,2013-02-19 05:00:00,
2013-02-19 06:05:00,30.0,25.8,30.00,SSE,155,2.0,3.0,84,0.00,,SKC,0.00,WeatherDisplay:10.37,2013-02-19 05:05:00,
2013-02-19 06:10:00,30.2,25.7,30.00,SSE,153,2.0,5.0,83,0.00,,SKC,0.00,WeatherDisplay:10.37,2013-02-19 05:10:00,
2013-02-19 06:15:00,30.4,25.8,30.00,South,174,2.0,5.0,83,0.00,,SKC,0.00,WeatherDisplay:10.37,2013-02-19 05:15:00,
2013-02-19 06:20:00,30.4,25.8,30.00,SSE,162,2.0,4.0,83,0.00,,SKC,0.00,WeatherDisplay:10.37,2013-02-19 05:20:00,
2013-02-19 06:25:00,30.4,25.8,29.99,SW,225,3.5,3.5,83,0.00,,SKC,0.00,WeatherDisplay:10.37,2013-02-19 05:25:00,
2013-02-19 06:30:00,30.6,26.0,29.99,South,180,3.5,3.5,83,0.00,,SKC,0.00,WeatherDisplay:10.37,2013-02-19 05:30:00,
2013-02-19 06:35:00,30.6,26.0,30.00,South,180,3.5,3.5,83,0.00,,SKC,0.00,WeatherDisplay:10.37,2013-02-19 05:35:00,
2013-02-19 06:40:00,30.6,26.0,30.00,SE,135,3.5,3.5,83,0.00,,SKC,0.00,WeatherDisplay:10.37,2013-02-19 05:40:00,
2013-02-19 06:45:00,30.6,26.0,29.99,South,180,5.8,5.8,83,0.00,,SKC,0.00,WeatherDisplay:10.37,2013-02-19 05:45:00,
2013-02-19 06:50:00,30.6,26.0,29.99,SW,225,5.8,5.8,83,0.00,,SKC,0.00,WeatherDisplay:10.37,2013-02-19 05:50:00,
2013-02-19 06:55:00,30.6,26.0,29.99,South,180,3.1,3.1,83,0.00,,SKC,0.00,WeatherDisplay:10.37,2013-02-19 05:55:00,
2013-02-19 07:00:00,30.6,26.0,29.99,South,180,2.3,2.3,83,0.00,,SKC,0.00,WeatherDisplay:10.37,2013-02-19 06:00:00,
2013-02-19 07:05:00,30.6,26.0,29.99,SE,135,2.3,2.3,83,0.00,,SKC,0.00,WeatherDisplay:10.37,2013-02-19 06:05:00,
2013-02-19 07:10:00,30.6,26.0,29.99,South,180,2.3,2.3,83,0.00,,SKC,0.00,WeatherDisplay:10.37,2013-02-19 06:10:00,
2013-02-19 07:15:00,30.6,26.0,29.99,South,180,3.5,3.5,83,0.00,,SKC,0.00,WeatherDisplay:10.37,2013-02-19 06:15:00,
2013-02-19 07:20:00,30.7,26.2,29.99,South,180,3.5,3.5,83,0.00,,SKC,0.00,WeatherDisplay:10.37,2013-02-19 06:20:00,
2013-02-19 07:25:00,30.7,26.2,29.99,South,180,3.5,3.5,83,0.00,,SKC,0.00,WeatherDisplay:10.37,2013-02-19 06:25:00,
2013-02-19 07:30:00,30.7,26.2,29.99,SE,135,2.3,2.3,83,0.00,,SKC,0.00,WeatherDisplay:10.37,2013-02-19 06:30:00,
2013-02-19 07:35:00,30.9,26.4,29.99,South,180,2.3,0.0,83,0.00,,SKC,0.00,WeatherDisplay:10.37,2013-02-19 06:35:00,
2013-02-19 07:40:00,30.9,26.4,29.99,SW,225,1.2,1.2,83,0.00,,SKC,0.00,WeatherDisplay:10.37,2013-02-19 06:40:00,
2013-02-19 07:45:00,30.9,26.4,29.99,SW,225,2.3,2.3,83,0.00,,SKC,0.00,WeatherDisplay:10.37,2013-02-19 06:45:00,
2013-02-19 07:50:00,30.9,26.4,29.99,West,270,1.2,0.0,83,0.00,,SKC,0.00,WeatherDisplay:10.37,2013-02-19 06:50:00,
2013-02-19 07:55:00,30.9,26.4,29.99,South,180,1.6,1.6,83,0.00,,SKC,0.00,WeatherDisplay:10.37,2013-02-19 06:55:00,
2013-02-19 08:00:00,31.1,26.5,29.98,South,180,1.2,0.0,83,0.00,,SKC,0.00,WeatherDisplay:10.37,2013-02-19 07:00:00,
2013-02-19 08:05:00,31.1,26.5,29.99,South,180,1.6,1.6,83,0.00,,SKC,0.00,WeatherDisplay:10.37,2013-02-19 07:05:00,
2013-02-19 08:10:00,31.1,26.5,29.98,West,270,1.2,0.0,83,0.00,,SKC,0.00,WeatherDisplay:10.37,2013-02-19 07:10:00,
2013-02-19 08:15:00,31.3,26.7,29.98,West,270,2.3,2.3,83,0.00,,SKC,0.00,WeatherDisplay:10.37,2013-02-19 07:15:00,
2013-02-19 08:20:00,31.3,26.7,29.98,SE,135,2.3,0.0,83,0.00,BKN,SKC,0.00,WeatherDisplay:10.37,2013-02-19 07:20:00,
2013-02-19 08:25:00,31.5,26.9,29.98,West,270,1.2,0.0,83,0.00,BKN,SKC,0.00,WeatherDisplay:10.37,2013-02-19 07:25:00,
2013-02-19 08:30:00,31.6,27.1,29.98,SE,135,2.3,2.3,83,0.00,BKN,SKC,0.00,WeatherDisplay:10.37,2013-02-19 07:30:00,
2013-02-19 08:35:00,31.6,27.1,29.98,East,90,2.3,0.0,83,0.00,BKN,SKC,0.00,WeatherDisplay:10.37,2013-02-19 07:35:00,
2013-02-19 08:40:00,31.8,27.2,29.98,East,90,1.6,1.6,83,0.00,BKN,SKC,0.00,WeatherDisplay:10.37,2013-02-19 07:40:00,
2013-02-19 08:45:00,32.0,27.1,29.97,SSE,158,3.8,3.8,82,0.00,BKN,SKC,0.00,WeatherDisplay:10.37,2013-02-19 07:45:00,
2013-02-19 08:50:00,32.0,27.1,29.98,SW,225,5.4,5.4,82,0.00,BKN,SKC,0.00,WeatherDisplay:10.37,2013-02-19 07:50:00,
2013-02-19 08:55:00,32.2,27.3,29.97,SW,225,3.8,3.8,82,0.00,BKN,SKC,0.00,WeatherDisplay:10.37,2013-02-19 07:55:00,
2013-02-19 09:00:00,32.2,27.3,29.97,SE,135,4.6,4.6,82,0.00,BKN,SKC,0.00,WeatherDisplay:10.37,2013-02-19 08:00:00,
2013-02-19 09:05:00,32.4,27.5,29.97,South,180,3.5,3.5,82,0.00,BKN,SKC,0.00,WeatherDisplay:10.37,2013-02-19 08:05:00,
2013-02-19 09:10:00,32.4,27.5,29.97,South,180,3.5,3.5,82,0.00,BKN,SKC,0.00,WeatherDisplay:10.37,2013-02-19 08:10:00,
2013-02-19 09:15:00,32.5,27.7,29.97,South,180,2.3,2.3,82,0.00,BKN,SKC,0.00,WeatherDisplay:10.37,2013-02-19 08:15:00,
2013-02-19 09:20:00,32.5,27.7,29.97,South,180,2.3,2.3,82,0.00,BKN,SKC,0.00,WeatherDisplay:10.37,2013-02-19 08:20:00,
2013-02-19 09:25:00,32.7,27.8,29.97,SE,135,5.8,5.8,82,0.00,BKN,SKC,0.00,WeatherDisplay:10.37,2013-02-19 08:25:00,
2013-02-19 09:30:00,32.9,28.0,29.97,South,180,3.5,3.5,82,0.00,BKN,SKC,0.00,WeatherDisplay:10.37,2013-02-19 08:30:00,
2013-02-19 09:35:00,33.1,28.2,29.97,South,180,3.5,3.5,82,0.00,BKN,SKC,0.00,WeatherDisplay:10.37,2013-02-19 08:35:00,
2013-02-19 09:40:00,33.4,28.5,29.97,South,180,1.6,1.6,82,0.00,BKN,SKC,0.00,WeatherDisplay:10.37,2013-02-19 08:40:00,
2013-02-19 09:45:00,33.6,28.7,29.96,South,180,5.8,5.8,82,0.00,BKN,SKC,0.00,WeatherDisplay:10.37,2013-02-19 08:45:00,
2013-02-19 09:50:00,34.0,28.8,29.97,South,180,5.8,5.8,81,0.00,BKN,SKC,0.00,WeatherDisplay:10.37,2013-02-19 08:50:00,
2013-02-19 09:55:00,34.3,29.1,29.96,South,180,4.6,4.6,81,0.00,BKN,SKC,0.00,WeatherDisplay:10.37,2013-02-19 08:55:00,
2013-02-19 10:00:00,34.5,29.3,29.96,South,180,8.1,8.1,81,0.00,BKN,SKC,0.00,WeatherDisplay:10.37,2013-02-19 09:00:00,
2013-02-19 10:05:00,34.9,29.3,29.96,South,180,6.0,6.0,80,0.00,BKN,SKC,0.00,WeatherDisplay:10.37,2013-02-19 09:05:00,
2013-02-19 10:10:00,35.1,29.5,29.95,South,180,6.0,6.0,80,0.00,BKN,SKC,0.00,WeatherDisplay:10.37,2013-02-19 09:10:00,
2013-02-19 10:15:00,35.1,29.5,29.96,SE,135,5.8,5.8,80,0.00,BKN,SKC,0.00,WeatherDisplay:10.37,2013-02-19 09:15:00,
2013-02-19 10:20:00,35.2,29.7,29.96,South,180,5.8,5.8,80,0.00,,SKC,0.00,WeatherDisplay:10.37,2013-02-19 09:20:00,
2013-02-19 10:25:00,35.4,29.6,29.96,South,180,4.6,4.6,79,0.00,,SKC,0.00,WeatherDisplay:10.37,2013-02-19 09:25:00,
2013-02-19 10:30:00,35.6,29.4,29.96,SE,135,5.8,5.8,78,0.00,,SKC,0.00,WeatherDisplay:10.37,2013-02-19 09:30:00,
2013-02-19 10:35:00,35.6,29.4,29.96,East,90,5.8,5.8,78,0.00,,SKC,0.00,WeatherDisplay:10.37,2013-02-19 09:35:00,
2013-02-19 10:40:00,36.0,29.8,29.95,South,180,3.8,3.8,78,0.00,,SKC,0.00,WeatherDisplay:10.37,2013-02-19 09:40:00,
2013-02-19 10:45:00,36.3,30.1,29.96,South,180,6.9,6.9,78,0.00,,SKC,0.00,WeatherDisplay:10.37,2013-02-19 09:45:00,
2013-02-19 10:50:00,36.5,30.3,29.95,SSE,158,6.9,6.9,78,0.00,,SKC,0.00,WeatherDisplay:10.37,2013-02-19 09:50:00,
2013-02-19 10:55:00,36.7,30.5,29.95,SW,225,8.1,8.1,78,0.00,,SKC,0.00,WeatherDisplay:10.37,2013-02-19 09:55:00,
2013-02-19 11:00:00,37.0,30.2,29.95,South,180,10.4,10.4,76,0.00,,SKC,0.00,WeatherDisplay:10.37,2013-02-19 10:00:00,
2013-02-19 11:05:00,37.2,30.0,29.95,South,180,8.3,8.3,75,0.00,,SKC,0.00,WeatherDisplay:10.37,2013-02-19 10:05:00,
2013-02-19 11:10:00,37.4,30.8,29.95,SW,225,6.0,6.0,77,0.00,,SKC,0.00,WeatherDisplay:10.37,2013-02-19 10:10:00,
2013-02-19 11:15:00,37.6,30.7,29.94,SW,225,9.2,9.2,76,0.00,,SKC,0.00,WeatherDisplay:10.37,2013-02-19 10:15:00,
2013-02-19 11:20:00,37.9,30.4,29.94,SSW,202,9.2,9.2,74,0.00,,SKC,0.00,WeatherDisplay:10.37,2013-02-19 10:20:00,
2013-02-19 11:25:00,37.9,29.7,29.94,SW,225,9.2,9.2,72,0.00,,SKC,0.00,WeatherDisplay:10.37,2013-02-19 10:25:00,
2013-02-19 11:30:00,38.1,29.2,29.94,South,180,10.4,10.4,70,0.00,,SKC,0.00,WeatherDisplay:10.37,2013-02-19 10:30:00,
2013-02-19 11:35:00,38.1,28.5,29.94,SW,225,9.2,9.2,68,0.00,,SKC,0.00,WeatherDisplay:10.37,2013-02-19 10:35:00,
2013-02-19 11:40:00,38.5,28.1,29.93,NW,315,8.1,8.1,66,0.00,,SKC,0.00,WeatherDisplay:10.37,2013-02-19 10:40:00,
2013-02-19 11:45:00,38.5,28.1,29.93,SW,225,6.9,6.9,66,0.00,,SKC,0.00,WeatherDisplay:10.37,2013-02-19 10:45:00,
2013-02-19 11:50:00,38.8,28.1,29.93,SW,225,6.9,6.9,65,0.00,,SKC,0.00,WeatherDisplay:10.37,2013-02-19 10:50:00,
2013-02-19 11:55:00,39.0,28.6,29.93,South,180,6.9,6.9,66,0.00,,SKC,0.00,WeatherDisplay:10.37,2013-02-19 10:55:00,
2013-02-19 12:00:00,39.0,28.2,29.93,SW,225,8.3,8.3,65,0.00,,SKC,0.00,WeatherDisplay:10.37,2013-02-19 11:00:00,
2013-02-19 12:05:00,39.0,28.2,29.93,SW,225,8.3,8.3,65,0.00,,SKC,0.00,WeatherDisplay:10.37,2013-02-19 11:05:00,
2013-02-19 12:10:00,39.2,27.7,29.93,NW,315,9.2,9.2,63,0.00,,SKC,0.00,WeatherDisplay:10.37,2013-02-19 11:10:00,
2013-02-19 12:15:00,39.2,27.7,29.93,WSW,248,9.2,9.2,63,0.00,,SKC,0.00,WeatherDisplay:10.37,2013-02-19 11:15:00,
2013-02-19 12:20:00,39.2,27.7,29.92,SSW,202,5.8,5.8,63,0.00,,SKC,0.00,WeatherDisplay:10.37,2013-02-19 11:20:00,
2013-02-19 12:25:00,39.7,28.5,29.92,South,180,9.8,9.8,64,0.00,,SKC,0.00,WeatherDisplay:10.37,2013-02-19 11:25:00,
2013-02-19 12:31:00,39.7,28.2,29.92,West,270,10.4,10.4,63,0.00,,SKC,0.00,WeatherDisplay:10.37,2013-02-19 11:31:00,
2013-02-19 12:36:00,39.7,27.8,29.92,SW,225,11.5,11.5,62,0.00,,SKC,0.00,WeatherDisplay:10.37,2013-02-19 11:36:00,
2013-02-19 12:41:00,39.7,27.8,29.92,SW,225,8.1,8.1,62,0.00,,SKC,0.00,WeatherDisplay:10.37,2013-02-19 11:41:00,
2013-02-19 12:46:00,39.9,28.3,29.91,SW,225,8.1,8.1,63,0.00,BKN,SKC,0.00,WeatherDisplay:10.37,2013-02-19 11:46:00,
2013-02-19 12:51:00,39.9,28.3,29.91,West,270,10.4,10.4,63,0.00,BKN,SKC,0.00,WeatherDisplay:10.37,2013-02-19 11:51:00,
2013-02-19 12:56:00,39.9,27.9,29.91,SW,225,10.7,10.7,62,0.00,BKN,SKC,0.00,WeatherDisplay:10.37,2013-02-19 11:56:00,
2013-02-19 13:01:00,39.9,27.5,29.91,SW,225,9.2,9.2,61,0.00,BKN,SKC,0.00,WeatherDisplay:10.37,2013-02-19 12:01:00,
2013-02-19 13:06:00,40.1,27.7,29.91,SW,225,10.4,10.4,61,0.00,BKN,SKC,0.00,WeatherDisplay:10.37,2013-02-19 12:06:00,
2013-02-19 13:11:00,40.3,27.9,29.91,SSW,202,9.2,9.2,61,0.00,BKN,SKC,0.00,WeatherDisplay:10.37,2013-02-19 12:11:00,
2013-02-19 13:16:00,40.5,28.1,29.90,West,270,8.1,8.1,61,0.00,BKN,SKC,0.00,WeatherDisplay:10.37,2013-02-19 12:16:00,
2013-02-19 13:21:00,40.5,27.7,29.90,South,180,6.9,6.9,60,0.00,BKN,SKC,0.00,WeatherDisplay:10.37,2013-02-19 12:21:00,
2013-02-19 13:26:00,40.6,27.8,29.90,West,270,6.0,6.0,60,0.00,BKN,SKC,0.00,WeatherDisplay:10.37,2013-02-19 12:26:00,
2013-02-19 13:31:00,40.8,27.2,29.90,SW,225,11.4,11.4,58,0.00,BKN,SKC,0.00,WeatherDisplay:10.37,2013-02-19 12:31:00,
2013-02-19 13:36:00,40.8,26.7,29.89,West,270,9.2,9.2,57,0.00,BKN,SKC,0.00,WeatherDisplay:10.37,2013-02-19 12:36:00,
2013-02-19 13:41:00,41.0,26.5,29.89,SW,225,8.3,8.3,56,0.00,BKN,SKC,0.00,WeatherDisplay:10.37,2013-02-19 12:41:00,
2013-02-19 13:46:00,41.2,26.7,29.89,SW,225,8.1,8.1,56,0.00,,SKC,0.00,WeatherDisplay:10.37,2013-02-19 12:46:00,
2013-02-19 13:51:00,41.2,26.7,29.89,SW,225,8.1,8.1,56,0.00,,SKC,0.00,WeatherDisplay:10.37,2013-02-19 12:51:00,
2013-02-19 13:56:00,40.8,25.4,29.88,West,270,8.1,8.1,54,0.00,,SKC,0.00,WeatherDisplay:10.37,2013-02-19 12:56:00,
2013-02-19 14:01:00,40.8,25.4,29.88,West,270,8.1,8.1,54,0.00,,SKC,0.00,WeatherDisplay:10.37,2013-02-19 13:01:00,
2013-02-19 14:06:00,40.8,25.4,29.88,North,1,8.1,8.1,54,0.00,,SKC,0.00,WeatherDisplay:10.37,2013-02-19 13:06:00,
2013-02-19 14:11:00,40.8,25.4,29.88,North,0,8.1,8.1,54,0.00,,SKC,0.00,WeatherDisplay:10.37,2013-02-19 13:11:00,
2013-02-19 14:16:00,41.4,25.0,29.87,SW,225,10.4,10.4,52,0.00,BKN,SKC,0.00,WeatherDisplay:10.37,2013-02-19 13:16:00,
2013-02-19 14:21:00,41.4,24.6,29.87,SW,225,11.5,11.5,51,0.00,BKN,SKC,0.00,WeatherDisplay:10.37,2013-02-19 13:21:00,
2013-02-19 14:26:00,41.2,23.9,29.87,West,270,9.2,9.2,50,0.00,BKN,SKC,0.00,WeatherDisplay:10.37,2013-02-19 13:26:00,
2013-02-19 14:31:00,41.2,23.9,29.86,SW,225,9.2,9.2,50,0.00,BKN,SKC,0.00,WeatherDisplay:10.37,2013-02-19 13:31:00,
2013-02-19 14:36:00,41.2,24.4,29.86,West,270,6.9,6.9,51,0.00,BKN,SKC,0.00,WeatherDisplay:10.37,2013-02-19 13:36:00,
2013-02-19 14:41:00,41.2,23.9,29.86,South,180,9.8,9.8,50,0.00,BKN,SKC,0.00,WeatherDisplay:10.37,2013-02-19 13:41:00,
2013-02-19 14:46:00,41.2,24.4,29.86,South,180,9.2,9.2,51,0.00,BKN,SKC,0.00,WeatherDisplay:10.37,2013-02-19 13:46:00,
2013-02-19 14:51:00,41.2,24.4,29.86,SSW,202,8.1,8.1,51,0.00,BKN,SKC,0.00,WeatherDisplay:10.37,2013-02-19 13:51:00,
2013-02-19 14:56:00,41.0,24.2,29.86,West,270,10.4,10.4,51,0.00,BKN,SKC,0.00,WeatherDisplay:10.37,2013-02-19 13:56:00,
2013-02-19 15:01:00,41.0,24.7,29.85,West,270,10.4,10.4,52,0.00,BKN,SKC,0.00,WeatherDisplay:10.37,2013-02-19 14:01:00,
2013-02-19 15:06:00,41.0,24.7,29.85,West,270,10.7,10.7,52,0.00,BKN,SKC,0.00,WeatherDisplay:10.37,2013-02-19 14:06:00,
2013-02-19 15:11:00,41.0,24.7,29.86,West,270,10.7,10.7,52,0.00,BKN,SKC,0.00,WeatherDisplay:10.37,2013-02-19 14:11:00,
2013-02-19 15:16:00,41.0,25.2,29.85,West,270,6.9,6.9,53,0.00,BKN,SKC,0.00,WeatherDisplay:10.37,2013-02-19 14:16:00,
2013-02-19 15:21:00,40.8,25.9,29.85,South,180,10.7,10.7,55,0.00,BKN,SKC,0.00,WeatherDisplay:10.37,2013-02-19 14:21:00,
2013-02-19 15:26:00,40.6,25.7,29.85,SW,225,6.0,6.0,55,0.00,BKN,SKC,0.00,WeatherDisplay:10.37,2013-02-19 14:26:00,
2013-02-19 15:31:00,40.5,25.5,29.85,SW,225,9.2,9.2,55,0.00,BKN,SKC,0.00,WeatherDisplay:10.37,2013-02-19 14:31:00,
2013-02-19 15:36:00,40.1,25.6,29.85,SSW,202,6.9,6.9,56,0.00,BKN,SKC,0.00,WeatherDisplay:10.37,2013-02-19 14:36:00,
2013-02-19 15:41:00,39.9,25.5,29.85,SW,225,9.2,9.2,56,0.00,BKN,SKC,0.00,WeatherDisplay:10.37,2013-02-19 14:41:00,
2013-02-19 15:46:00,39.7,25.3,29.85,SW,225,10.4,10.4,56,0.00,BKN,SKC,0.00,WeatherDisplay:10.37,2013-02-19 14:46:00,
2013-02-19 15:51:00,39.7,25.7,29.84,SW,225,8.1,8.1,57,0.00,BKN,SKC,0.00,WeatherDisplay:10.37,2013-02-19 14:51:00,
2013-02-19 15:56:00,39.7,26.2,29.84,SW,225,10.4,10.4,58,0.00,BKN,SKC,0.00,WeatherDisplay:10.37,2013-02-19 14:56:00,
2013-02-19 16:01:00,39.7,26.6,29.84,South,180,10.4,10.4,59,0.00,BKN,SKC,0.00,WeatherDisplay:10.37,2013-02-19 15:01:00,
2013-02-19 16:06:00,39.4,27.0,29.84,SW,225,9.2,9.2,61,0.00,BKN,SKC,0.00,WeatherDisplay:10.37,2013-02-19 15:06:00,
2013-02-19 16:11:00,39.2,27.3,29.84,West,270,8.1,8.1,62,0.00,BKN,SKC,0.00,WeatherDisplay:10.37,2013-02-19 15:11:00,
2013-02-19 16:16:00,39.0,27.5,29.83,WSW,248,9.2,9.2,63,0.00,BKN,SKC,0.00,WeatherDisplay:10.37,2013-02-19 15:16:00,
2013-02-19 16:21:00,39.0,27.5,29.84,NW,315,5.8,5.8,63,0.00,BKN,SKC,0.00,WeatherDisplay:10.37,2013-02-19 15:21:00,
2013-02-19 16:26:00,39.0,27.9,29.84,West,270,10.7,10.7,64,0.00,BKN,SKC,0.00,WeatherDisplay:10.37,2013-02-19 15:26:00,
2013-02-19 16:31:00,38.8,28.1,29.84,West,270,8.1,8.1,65,0.00,BKN,SKC,0.00,WeatherDisplay:10.37,2013-02-19 15:31:00,
2013-02-19 16:36:00,38.7,28.3,29.83,West,270,12.7,12.7,66,0.00,BKN,SKC,0.00,WeatherDisplay:10.37,2013-02-19 15:36:00,
2013-02-19 16:41:00,38.7,28.6,29.84,WSW,248,12.7,12.7,67,0.00,BKN,SKC,0.00,WeatherDisplay:10.37,2013-02-19 15:41:00,
2013-02-19 16:46:00,38.1,28.8,29.84,West,270,10.7,10.7,69,0.00,BKN,SKC,0.00,WeatherDisplay:10.37,2013-02-19 15:46:00,
2013-02-19 16:51:00,37.9,29.0,29.84,SW,225,10.4,10.4,70,0.00,BKN,SKC,0.00,WeatherDisplay:10.37,2013-02-19 15:51:00,
2013-02-19 16:56:00,37.6,29.4,29.84,SW,225,8.1,8.1,72,0.00,BKN,SKC,0.00,WeatherDisplay:10.37,2013-02-19 15:56:00,
2013-02-19 17:01:00,37.4,29.2,29.84,NW,315,8.3,8.3,72,0.00,BKN,SKC,0.00,WeatherDisplay:10.37,2013-02-19 16:01:00,
2013-02-19 17:06:00,37.2,28.0,29.83,SW,225,8.1,8.1,69,0.00,BKN,SKC,0.00,WeatherDisplay:10.37,2013-02-19 16:06:00,
2013-02-19 17:11:00,37.2,28.0,29.83,WSW,248,5.8,5.8,69,0.00,BKN,SKC,0.00,WeatherDisplay:10.37,2013-02-19 16:11:00,
2013-02-19 17:16:00,37.0,28.2,29.83,SW,225,10.7,10.7,70,0.00,-SN,SKC,0.00,WeatherDisplay:10.37,2013-02-19 16:16:00,
2013-02-19 17:21:00,36.7,28.2,29.84,SW,225,8.1,8.1,71,0.00,-SN,SKC,0.00,WeatherDisplay:10.37,2013-02-19 16:21:00,
2013-02-19 17:26:00,36.7,28.2,29.83,SW,225,6.9,6.9,71,0.00,-SN,SKC,0.00,WeatherDisplay:10.37,2013-02-19 16:26:00,
2013-02-19 17:31:00,36.5,28.3,29.83,South,180,8.1,8.1,72,0.00,-SN,SKC,0.00,WeatherDisplay:10.37,2013-02-19 16:31:00,
2013-02-19 17:36:00,36.5,28.3,29.83,SE,135,11.4,11.4,72,0.00,-SN,SKC,0.00,WeatherDisplay:10.37,2013-02-19 16:36:00,
2013-02-19 17:41:00,36.3,28.2,29.83,SW,225,10.7,10.7,72,0.00,-SN,SKC,0.00,WeatherDisplay:10.37,2013-02-19 16:41:00,
2013-02-19 17:46:00,36.1,28.3,29.83,WSW,248,7.6,7.6,73,0.00,-SN,SKC,0.00,WeatherDisplay:10.37,2013-02-19 16:46:00,
2013-02-19 17:51:00,36.1,28.3,29.83,SW,225,8.3,8.3,73,0.00,-SN,SKC,0.00,WeatherDisplay:10.37,2013-02-19 16:51:00,
2013-02-19 17:56:00,36.1,28.3,29.83,SW,225,8.1,8.1,73,0.01,-SN,SKC,0.01,WeatherDisplay:10.37,2013-02-19 16:56:00,
2013-02-19 18:01:00,36.0,28.1,29.83,SW,225,9.2,9.2,73,0.01,-SN,SKC,0.01,WeatherDisplay:10.37,2013-02-19 17:01:00,
2013-02-19 18:06:00,36.0,28.5,29.83,SW,225,5.8,5.8,74,0.01,-SN,SKC,0.01,WeatherDisplay:10.37,2013-02-19 17:06:00,
2013-02-19 18:11:00,35.8,28.3,29.83,SW,225,6.9,6.9,74,0.01,-SN,SKC,0.01,WeatherDisplay:10.37,2013-02-19 17:11:00,
2013-02-19 18:16:00,35.6,28.5,29.83,SW,225,6.9,6.9,75,0.01,-SN,SKC,0.01,WeatherDisplay:10.37,2013-02-19 17:16:00,
2013-02-19 18:21:00,35.6,28.5,29.83,SW,225,8.1,8.1,75,0.01,-SN,SKC,0.01,WeatherDisplay:10.37,2013-02-19 17:21:00,
2013-02-19 18:26:00,35.4,28.9,29.83,SW,225,8.1,8.1,77,0.01,-SN,SKC,0.01,WeatherDisplay:10.37,2013-02-19 17:26:00,
2013-02-19 18:31:00,35.2,28.8,29.83,SW,225,8.1,8.1,77,0.01,-SN,SKC,0.01,WeatherDisplay:10.37,2013-02-19 17:31:00,
2013-02-19 18:36:00,35.1,28.9,29.83,South,180,5.8,5.8,78,0.01,-SN,SKC,0.01,WeatherDisplay:10.37,2013-02-19 17:36:00,
2013-02-19 18:41:00,35.1,28.9,29.83,SW,225,6.9,6.9,78,0.01,-SN,SKC,0.01,WeatherDisplay:10.37,2013-02-19 17:41:00,
2013-02-19 18:46:00,34.9,29.0,29.83,West,270,4.6,4.6,79,0.01,-SN,SKC,0.01,WeatherDisplay:10.37,2013-02-19 17:46:00,
2013-02-19 18:51:00,34.7,28.9,29.83,SW,225,6.9,6.9,79,0.01,-SN,SKC,0.01,WeatherDisplay:10.37,2013-02-19 17:51:00,
2013-02-19 18:56:00,34.7,28.9,29.83,SW,225,8.1,8.1,79,0.00,-SN,SKC,0.01,WeatherDisplay:10.37,2013-02-19 17:56:00,
2013-02-19 19:01:00,34.5,28.7,29.83,West,270,6.9,6.9,79,0.00,-SN,SKC,0.01,WeatherDisplay:10.37,2013-02-19 18:01:00,
2013-02-19 19:06:00,34.5,28.7,29.83,South,180,5.8,5.8,79,0.00,-SN,SKC,0.01,WeatherDisplay:10.37,2013-02-19 18:06:00,
2013-02-19 19:11:00,34.3,28.8,29.83,South,180,6.9,6.9,80,0.00,-SN,SKC,0.01,WeatherDisplay:10.37,2013-02-19 18:11:00,
2013-02-19 19:16:00,34.3,28.8,29.83,South,180,6.0,6.0,80,0.00,-DZ,SKC,0.01,WeatherDisplay:10.37,2013-02-19 18:16:00,
2013-02-19 19:21:00,34.3,28.8,29.83,SW,225,5.8,5.8,80,0.00,-DZ,SKC,0.01,WeatherDisplay:10.37,2013-02-19 18:21:00,
2013-02-19 19:26:00,34.2,28.6,29.82,SW,225,6.9,6.9,80,0.00,-DZ,SKC,0.01,WeatherDisplay:10.37,2013-02-19 18:26:00,
2013-02-19 19:31:00,34.2,28.6,29.82,South,180,8.1,8.1,80,0.00,-DZ,SKC,0.01,WeatherDisplay:10.37,2013-02-19 18:31:00,
2013-02-19 19:36:00,34.2,28.6,29.82,South,180,6.9,6.9,80,0.00,-DZ,SKC,0.01,WeatherDisplay:10.37,2013-02-19 18:36:00,
2013-02-19 19:41:00,34.2,28.6,29.82,SSW,202,6.9,6.9,80,0.01,-DZ,SKC,0.02,WeatherDisplay:10.37,2013-02-19 18:41:00,
2013-02-19 19:46:00,34.0,28.5,29.82,NNE,22,6.9,6.9,80,0.01,-DZ,SKC,0.02,WeatherDisplay:10.37,2013-02-19 18:46:00,
2013-02-19 19:51:00,34.0,28.8,29.82,SW,225,8.1,8.1,81,0.01,-DZ,SKC,0.02,WeatherDisplay:10.37,2013-02-19 18:51:00,
2013-02-19 19:56:00,34.0,28.8,29.82,SSW,202,7.6,7.6,81,0.01,-DZ,SKC,0.02,WeatherDisplay:10.37,2013-02-19 18:56:00,
2013-02-19 20:01:00,34.0,28.8,29.81,SSW,202,8.1,8.1,81,0.01,-DZ,SKC,0.02,WeatherDisplay:10.37,2013-02-19 19:01:00,
2013-02-19 20:06:00,34.0,28.8,29.82,SSW,202,5.8,5.8,81,0.01,-DZ,SKC,0.02,WeatherDisplay:10.37,2013-02-19 19:06:00,
2013-02-19 20:11:00,34.2,28.9,29.82,SSW,202,8.1,8.1,81,0.01,-DZ,SKC,0.02,WeatherDisplay:10.37,2013-02-19 19:11:00,
2013-02-19 20:16:00,34.2,29.2,29.81,SW,225,8.1,8.1,82,0.01,-SN,SKC,0.02,WeatherDisplay:10.37,2013-02-19 19:16:00,
2013-02-19 20:21:00,34.2,29.2,29.82,South,180,9.2,9.2,82,0.01,-SN,SKC,0.02,WeatherDisplay:10.37,2013-02-19 19:21:00,
2013-02-19 20:26:00,34.2,29.2,29.82,South,180,8.1,8.1,82,0.01,-SN,SKC,0.02,WeatherDisplay:10.37,2013-02-19 19:26:00,
2013-02-19 20:31:00,34.3,29.4,29.82,SE,135,10.7,10.7,82,0.01,-SN,SKC,0.02,WeatherDisplay:10.37,2013-02-19 19:31:00,
2013-02-19 20:36:00,34.3,29.4,29.82,SSW,202,11.4,11.4,82,0.01,-SN,SKC,0.02,WeatherDisplay:10.37,2013-02-19 19:36:00,
2013-02-19 20:41:00,34.3,29.4,29.82,South,180,11.4,11.4,82,0.00,-SN,SKC,0.02,WeatherDisplay:10.37,2013-02-19 19:41:00,
2013-02-19 20:46:00,34.3,29.4,29.82,SW,225,9.2,9.2,82,0.01,-SN,SKC,0.04,WeatherDisplay:10.37,2013-02-19 19:46:00,
2013-02-19 20:51:00,34.3,29.4,29.82,SSW,202,10.7,10.7,82,0.01,-SN,SKC,0.04,WeatherDisplay:10.37,2013-02-19 19:51:00,
2013-02-19 20:56:00,34.2,29.2,29.83,SSW,202,8.1,8.1,82,0.01,-SN,SKC,0.04,WeatherDisplay:10.37,2013-02-19 19:56:00,
2013-02-19 21:01:00,34.2,29.2,29.82,SW,225,11.5,11.5,82,0.01,-SN,SKC,0.04,WeatherDisplay:10.37,2013-02-19 20:01:00,
2013-02-19 21:06:00,34.2,29.5,29.83,NW,315,12.7,12.7,83,0.01,-SN,SKC,0.04,WeatherDisplay:10.37,2013-02-19 20:06:00,
2013-02-19 21:11:00,34.0,29.4,29.82,SW,225,6.9,6.9,83,0.01,-SN,SKC,0.04,WeatherDisplay:10.37,2013-02-19 20:11:00,
2013-02-19 21:16:00,34.0,29.4,29.83,West,270,8.1,8.1,83,0.01,-RA,SKC,0.04,WeatherDisplay:10.37,2013-02-19 20:16:00,
2013-02-19 21:21:00,34.0,29.4,29.82,SW,225,10.4,10.4,83,0.01,-RA,SKC,0.04,WeatherDisplay:10.37,2013-02-19 20:21:00,
2013-02-19 21:26:00,34.0,29.4,29.82,South,180,9.8,9.8,83,0.01,-RA,SKC,0.04,WeatherDisplay:10.37,2013-02-19 20:26:00,
2013-02-19 21:31:00,34.0,29.4,29.83,SW,225,9.2,9.2,83,0.01,-RA,SKC,0.04,WeatherDisplay:10.37,2013-02-19 20:31:00,
2013-02-19 21:36:00,34.0,29.4,29.82,WSW,248,8.1,8.1,83,0.01,-RA,SKC,0.05,WeatherDisplay:10.37,2013-02-19 20:36:00,
2013-02-19 21:41:00,34.0,29.4,29.82,WNW,292,8.1,8.1,83,0.02,-RA,SKC,0.05,WeatherDisplay:10.37,2013-02-19 20:41:00,
2013-02-19 21:46:00,33.8,29.2,29.82,WSW,248,8.1,8.1,83,0.01,-RA,SKC,0.05,WeatherDisplay:10.37,2013-02-19 20:46:00,
2013-02-19 21:51:00,33.8,29.2,29.83,SW,225,8.1,8.1,83,0.01,-RA,SKC,0.05,WeatherDisplay:10.37,2013-02-19 20:51:00,
2013-02-19 21:56:00,33.8,29.2,29.82,SW,225,6.9,6.9,83,0.01,-RA,SKC,0.05,WeatherDisplay:10.37,2013-02-19 20:56:00,
2013-02-19 22:01:00,33.8,29.2,29.82,South,180,8.1,8.1,83,0.01,-RA,SKC,0.05,WeatherDisplay:10.37,2013-02-19 21:01:00,
2013-02-19 22:06:00,33.8,29.2,29.83,South,180,4.6,4.6,83,0.01,-RA,SKC,0.05,WeatherDisplay:10.37,2013-02-19 21:06:00,
2013-02-19 22:11:00,33.6,29.3,29.82,South,180,6.9,6.9,84,0.01,-RA,SKC,0.05,WeatherDisplay:10.37,2013-02-19 21:11:00,
2013-02-19 22:16:00,33.6,29.3,29.81,SW,225,5.8,5.8,84,0.01,-RA,SKC,0.05,WeatherDisplay:10.37,2013-02-19 21:16:00,
2013-02-19 22:21:00,33.6,29.3,29.82,SW,225,5.8,5.8,84,0.01,-RA,SKC,0.05,WeatherDisplay:10.37,2013-02-19 21:21:00,
2013-02-19 22:26:00,33.6,29.3,29.82,SW,225,4.5,4.5,84,0.01,-RA,SKC,0.05,WeatherDisplay:10.37,2013-02-19 21:26:00,
2013-02-19 22:31:00,33.4,29.1,29.81,SW,225,6.9,6.9,84,0.01,-RA,SKC,0.05,WeatherDisplay:10.37,2013-02-19 21:31:00,
2013-02-19 22:36:00,33.4,29.1,29.82,West,270,5.8,5.8,84,0.01,-RA,SKC,0.05,WeatherDisplay:10.37,2013-02-19 21:36:00,
2013-02-19 22:41:00,33.4,29.1,29.81,SW,225,5.8,5.8,84,0.00,-RA,SKC,0.05,WeatherDisplay:10.37,2013-02-19 21:41:00,
2013-02-19 22:46:00,33.4,29.4,29.82,WSW,248,8.3,8.3,85,0.00,-RA,SKC,0.05,WeatherDisplay:10.37,2013-02-19 21:46:00,
2013-02-19 22:51:00,33.6,29.6,29.82,West,270,8.1,8.1,85,0.00,-RA,SKC,0.05,WeatherDisplay:10.37,2013-02-19 21:51:00,
2013-02-19 22:56:00,33.6,29.6,29.82,WSW,248,5.8,5.8,85,0.00,-RA,SKC,0.05,WeatherDisplay:10.37,2013-02-19 21:56:00,
2013-02-19 23:01:00,33.6,29.6,29.82,SW,225,6.9,6.9,85,0.00,-RA,SKC,0.05,WeatherDisplay:10.37,2013-02-19 22:01:00,
2013-02-19 23:06:00,33.8,29.5,29.82,SW,225,8.1,8.1,84,0.01,-RA,SKC,0.06,WeatherDisplay:10.37,2013-02-19 22:06:00,
2013-02-19 23:11:00,33.8,29.5,29.82,SW,225,6.9,6.9,84,0.01,-RA,SKC,0.06,WeatherDisplay:10.37,2013-02-19 22:11:00,
2013-02-19 23:16:00,33.8,29.5,29.82,SW,225,9.8,9.8,84,0.01,-RA,SKC,0.06,WeatherDisplay:10.37,2013-02-19 22:16:00,
2013-02-19 23:21:00,34.0,29.7,29.83,West,270,6.0,6.0,84,0.01,-RA,SKC,0.06,WeatherDisplay:10.37,2013-02-19 22:21:00,
2013-02-19 23:26:00,34.2,29.8,29.82,West,270,5.8,5.8,84,0.01,-RA,SKC,0.06,WeatherDisplay:10.37,2013-02-19 22:26:00,
2013-02-19 23:31:00,34.2,29.8,29.83,West,270,6.9,6.9,84,0.01,-RA,SKC,0.06,WeatherDisplay:10.37,2013-02-19 22:31:00,
2013-02-19 23:36:00,34.2,29.8,29.83,SW,225,3.5,3.5,84,0.01,-RA,SKC,0.06,WeatherDisplay:10.37,2013-02-19 22:36:00,
2013-02-19 23:41:00,34.3,30.0,29.83,WSW,248,4.6,4.6,84,0.01,-RA,SKC,0.06,WeatherDisplay:10.37,2013-02-19 22:41:00,
2013-02-19 23:46:00,34.3,30.0,29.83,SW,225,5.8,5.8,84,0.01,-RA,SKC,0.06,WeatherDisplay:10.37,2013-02-19 22:46:00,
2013-02-19 23:51:00,34.3,30.0,29.83,WSW,248,5.8,5.8,84,0.02,-RA,SKC,0.07,WeatherDisplay:10.37,2013-02-19 22:51:00,
2013-02-19 23:56:00,34.3,30.0,29.83,SW,225,5.8,5.8,84,0.02,-RA,SKC,0.07,WeatherDisplay:10.37,2013-02-19 22:56:00,